sensor_id;sensor_type;location;lat;lon;timestamp;P1;durP1;ratioP1;P2;durP2;ratioP2
42260;SDS011;27926;48.062;7.474;2022-07-29T00:01:21;5.53;;;3.45;;
42260;SDS011;27926;48.062;7.474;2022-07-29T00:03:46;7.93;;;4.30;;
42260;SDS011;27926;48.062;7.474;2022-07-29T00:06:11;6.38;;;4.10;;
42260;SDS011;27926;48.062;7.474;2022-07-29T00:08:37;4.47;;;2.95;;
42260;SDS011;27926;48.062;7.474;2022-07-29T00:11:01;6.57;;;3.35;;
42260;SDS011;27926;48.062;7.474;2022-07-29T00:13:26;6.13;;;3.83;;
42260;SDS011;27926;48.062;7.474;2022-07-29T00:15:54;8.20;;;4.00;;
42260;SDS011;27926;48.062;7.474;2022-07-29T00:18:18;8.13;;;4.38;;
42260;SDS011;27926;48.062;7.474;2022-07-29T00:20:43;7.30;;;3.88;;
42260;SDS011;27926;48.062;7.474;2022-07-29T00:23:07;5.75;;;4.03;;
42260;SDS011;27926;48.062;7.474;2022-07-29T00:25:32;6.85;;;4.15;;
42260;SDS011;27926;48.062;7.474;2022-07-29T00:27:57;5.90;;;3.83;;
42260;SDS011;27926;48.062;7.474;2022-07-29T00:30:22;8.70;;;3.30;;
42260;SDS011;27926;48.062;7.474;2022-07-29T00:32:46;6.55;;;3.65;;
42260;SDS011;27926;48.062;7.474;2022-07-29T00:35:11;6.80;;;4.35;;
42260;SDS011;27926;48.062;7.474;2022-07-29T00:37:54;7.07;;;3.88;;
42260;SDS011;27926;48.062;7.474;2022-07-29T00:40:19;6.00;;;4.00;;
42260;SDS011;27926;48.062;7.474;2022-07-29T00:42:44;7.90;;;4.22;;
42260;SDS011;27926;48.062;7.474;2022-07-29T00:45:11;7.03;;;3.63;;
42260;SDS011;27926;48.062;7.474;2022-07-29T00:47:36;9.35;;;4.00;;
42260;SDS011;27926;48.062;7.474;2022-07-29T00:50:01;9.52;;;4.07;;
42260;SDS011;27926;48.062;7.474;2022-07-29T00:52:27;7.55;;;4.25;;
42260;SDS011;27926;48.062;7.474;2022-07-29T00:54:51;5.40;;;3.85;;
42260;SDS011;27926;48.062;7.474;2022-07-29T00:57:16;16.42;;;4.55;;
42260;SDS011;27926;48.062;7.474;2022-07-29T00:59:41;4.80;;;3.42;;
42260;SDS011;27926;48.062;7.474;2022-07-29T01:02:05;6.60;;;4.03;;
42260;SDS011;27926;48.062;7.474;2022-07-29T01:04:30;5.28;;;4.10;;
42260;SDS011;27926;48.062;7.474;2022-07-29T01:06:55;6.38;;;3.95;;
42260;SDS011;27926;48.062;7.474;2022-07-29T01:09:20;7.88;;;4.15;;
42260;SDS011;27926;48.062;7.474;2022-07-29T01:11:46;5.10;;;3.70;;
42260;SDS011;27926;48.062;7.474;2022-07-29T01:14:12;6.63;;;4.10;;
42260;SDS011;27926;48.062;7.474;2022-07-29T01:22:28;7.00;;;3.75;;
42260;SDS011;27926;48.062;7.474;2022-07-29T01:27:40;4.97;;;3.83;;
42260;SDS011;27926;48.062;7.474;2022-07-29T01:30:12;5.70;;;4.07;;
42260;SDS011;27926;48.062;7.474;2022-07-29T01:32:38;9.50;;;4.60;;
42260;SDS011;27926;48.062;7.474;2022-07-29T01:35:17;6.65;;;3.97;;
42260;SDS011;27926;48.062;7.474;2022-07-29T01:40:25;9.30;;;4.40;;
42260;SDS011;27926;48.062;7.474;2022-07-29T01:42:55;5.43;;;3.85;;
42260;SDS011;27926;48.062;7.474;2022-07-29T01:45:40;7.82;;;4.10;;
42260;SDS011;27926;48.062;7.474;2022-07-29T01:50:58;6.28;;;3.70;;
42260;SDS011;27926;48.062;7.474;2022-07-29T01:53:42;5.93;;;4.10;;
42260;SDS011;27926;48.062;7.474;2022-07-29T01:56:20;8.25;;;3.78;;
42260;SDS011;27926;48.062;7.474;2022-07-29T01:58:48;5.65;;;3.65;;
42260;SDS011;27926;48.062;7.474;2022-07-29T02:01:16;6.15;;;3.95;;
42260;SDS011;27926;48.062;7.474;2022-07-29T02:03:45;5.95;;;3.85;;
42260;SDS011;27926;48.062;7.474;2022-07-29T02:06:11;8.45;;;4.60;;
42260;SDS011;27926;48.062;7.474;2022-07-29T02:08:40;6.07;;;3.95;;
42260;SDS011;27926;48.062;7.474;2022-07-29T02:11:05;6.22;;;4.07;;
42260;SDS011;27926;48.062;7.474;2022-07-29T02:13:32;7.82;;;3.80;;
42260;SDS011;27926;48.062;7.474;2022-07-29T02:15:59;6.55;;;4.38;;
42260;SDS011;27926;48.062;7.474;2022-07-29T02:18:26;10.50;;;4.18;;
42260;SDS011;27926;48.062;7.474;2022-07-29T02:20:54;6.05;;;3.88;;
42260;SDS011;27926;48.062;7.474;2022-07-29T02:23:22;16.10;;;4.47;;
42260;SDS011;27926;48.062;7.474;2022-07-29T02:25:48;6.10;;;4.07;;
42260;SDS011;27926;48.062;7.474;2022-07-29T02:28:15;4.80;;;3.90;;
42260;SDS011;27926;48.062;7.474;2022-07-29T02:30:41;4.65;;;3.97;;
42260;SDS011;27926;48.062;7.474;2022-07-29T02:33:08;5.22;;;3.72;;
42260;SDS011;27926;48.062;7.474;2022-07-29T02:35:38;5.47;;;3.83;;
42260;SDS011;27926;48.062;7.474;2022-07-29T02:38:04;5.00;;;3.70;;
42260;SDS011;27926;48.062;7.474;2022-07-29T02:40:48;13.05;;;4.32;;
42260;SDS011;27926;48.062;7.474;2022-07-29T02:43:14;5.03;;;4.10;;
42260;SDS011;27926;48.062;7.474;2022-07-29T02:45:41;6.82;;;4.45;;
42260;SDS011;27926;48.062;7.474;2022-07-29T02:48:10;7.70;;;5.13;;
42260;SDS011;27926;48.062;7.474;2022-07-29T02:50:41;12.20;;;4.20;;
42260;SDS011;27926;48.062;7.474;2022-07-29T02:53:14;7.18;;;4.50;;
42260;SDS011;27926;48.062;7.474;2022-07-29T02:55:51;6.97;;;4.82;;
42260;SDS011;27926;48.062;7.474;2022-07-29T02:58:29;7.95;;;4.97;;
42260;SDS011;27926;48.062;7.474;2022-07-29T03:00:56;6.22;;;4.40;;
42260;SDS011;27926;48.062;7.474;2022-07-29T03:03:25;8.30;;;5.05;;
42260;SDS011;27926;48.062;7.474;2022-07-29T03:05:57;10.70;;;4.85;;
42260;SDS011;27926;48.062;7.474;2022-07-29T03:08:24;6.90;;;4.70;;
42260;SDS011;27926;48.062;7.474;2022-07-29T03:10:50;7.38;;;4.15;;
42260;SDS011;27926;48.062;7.474;2022-07-29T03:13:16;10.15;;;4.72;;
42260;SDS011;27926;48.062;7.474;2022-07-29T03:15:42;10.60;;;4.35;;
42260;SDS011;27926;48.062;7.474;2022-07-29T03:18:08;6.28;;;3.63;;
42260;SDS011;27926;48.062;7.474;2022-07-29T03:20:34;10.88;;;4.00;;
42260;SDS011;27926;48.062;7.474;2022-07-29T03:22:58;4.90;;;4.07;;
42260;SDS011;27926;48.062;7.474;2022-07-29T03:25:23;6.65;;;3.75;;
42260;SDS011;27926;48.062;7.474;2022-07-29T03:27:48;7.88;;;3.83;;
42260;SDS011;27926;48.062;7.474;2022-07-29T03:30:14;8.02;;;3.58;;
42260;SDS011;27926;48.062;7.474;2022-07-29T03:32:40;7.00;;;3.72;;
42260;SDS011;27926;48.062;7.474;2022-07-29T03:35:05;12.55;;;3.55;;
42260;SDS011;27926;48.062;7.474;2022-07-29T03:37:30;8.48;;;4.18;;
42260;SDS011;27926;48.062;7.474;2022-07-29T03:39:55;5.78;;;3.92;;
42260;SDS011;27926;48.062;7.474;2022-07-29T03:42:21;3.85;;;3.45;;
42260;SDS011;27926;48.062;7.474;2022-07-29T03:44:49;8.68;;;3.45;;
42260;SDS011;27926;48.062;7.474;2022-07-29T03:47:16;8.13;;;4.00;;
42260;SDS011;27926;48.062;7.474;2022-07-29T03:49:44;4.75;;;3.40;;
42260;SDS011;27926;48.062;7.474;2022-07-29T03:52:12;4.65;;;3.22;;
42260;SDS011;27926;48.062;7.474;2022-07-29T03:54:37;4.55;;;3.05;;
42260;SDS011;27926;48.062;7.474;2022-07-29T03:57:02;8.30;;;3.13;;
42260;SDS011;27926;48.062;7.474;2022-07-29T03:59:30;12.13;;;3.60;;
42260;SDS011;27926;48.062;7.474;2022-07-29T04:01:57;3.42;;;2.97;;
42260;SDS011;27926;48.062;7.474;2022-07-29T04:06:48;7.40;;;3.67;;
42260;SDS011;27926;48.062;7.474;2022-07-29T04:09:13;4.18;;;2.90;;
42260;SDS011;27926;48.062;7.474;2022-07-29T04:11:39;7.13;;;3.43;;
42260;SDS011;27926;48.062;7.474;2022-07-29T04:14:05;6.25;;;4.03;;
42260;SDS011;27926;48.062;7.474;2022-07-29T04:16:29;9.30;;;3.58;;
42260;SDS011;27926;48.062;7.474;2022-07-29T04:18:54;6.63;;;3.22;;
42260;SDS011;27926;48.062;7.474;2022-07-29T04:21:19;8.68;;;3.60;;
42260;SDS011;27926;48.062;7.474;2022-07-29T04:23:43;3.95;;;2.90;;
42260;SDS011;27926;48.062;7.474;2022-07-29T04:26:09;4.70;;;3.38;;
42260;SDS011;27926;48.062;7.474;2022-07-29T04:28:34;4.35;;;3.05;;
42260;SDS011;27926;48.062;7.474;2022-07-29T04:30:59;5.53;;;3.30;;
42260;SDS011;27926;48.062;7.474;2022-07-29T04:33:24;3.17;;;2.65;;
42260;SDS011;27926;48.062;7.474;2022-07-29T04:35:48;3.88;;;2.63;;
42260;SDS011;27926;48.062;7.474;2022-07-29T04:38:13;5.03;;;2.50;;
42260;SDS011;27926;48.062;7.474;2022-07-29T04:40:37;3.28;;;2.30;;
42260;SDS011;27926;48.062;7.474;2022-07-29T04:43:02;3.67;;;2.47;;
42260;SDS011;27926;48.062;7.474;2022-07-29T04:45:27;7.57;;;2.70;;
42260;SDS011;27926;48.062;7.474;2022-07-29T04:47:52;5.60;;;3.33;;
42260;SDS011;27926;48.062;7.474;2022-07-29T04:50:16;2.75;;;2.50;;
42260;SDS011;27926;48.062;7.474;2022-07-29T04:52:41;3.20;;;2.33;;
42260;SDS011;27926;48.062;7.474;2022-07-29T04:55:06;3.25;;;2.08;;
42260;SDS011;27926;48.062;7.474;2022-07-29T04:57:31;6.25;;;2.75;;
42260;SDS011;27926;48.062;7.474;2022-07-29T04:59:56;5.40;;;2.47;;
42260;SDS011;27926;48.062;7.474;2022-07-29T05:02:20;8.75;;;3.05;;
42260;SDS011;27926;48.062;7.474;2022-07-29T05:04:45;5.83;;;2.80;;
42260;SDS011;27926;48.062;7.474;2022-07-29T05:07:10;5.15;;;2.22;;
42260;SDS011;27926;48.062;7.474;2022-07-29T05:09:35;3.15;;;2.35;;
42260;SDS011;27926;48.062;7.474;2022-07-29T05:11:59;6.72;;;2.08;;
42260;SDS011;27926;48.062;7.474;2022-07-29T05:14:24;3.28;;;1.92;;
42260;SDS011;27926;48.062;7.474;2022-07-29T05:16:48;5.78;;;2.40;;
42260;SDS011;27926;48.062;7.474;2022-07-29T05:19:15;3.67;;;1.83;;
42260;SDS011;27926;48.062;7.474;2022-07-29T05:21:39;3.77;;;1.73;;
42260;SDS011;27926;48.062;7.474;2022-07-29T05:24:04;11.65;;;1.67;;
42260;SDS011;27926;48.062;7.474;2022-07-29T05:26:29;6.20;;;1.45;;
42260;SDS011;27926;48.062;7.474;2022-07-29T05:28:53;3.73;;;1.67;;
42260;SDS011;27926;48.062;7.474;2022-07-29T05:31:18;3.60;;;2.03;;
42260;SDS011;27926;48.062;7.474;2022-07-29T05:33:43;2.80;;;1.90;;
42260;SDS011;27926;48.062;7.474;2022-07-29T05:36:08;13.23;;;2.00;;
42260;SDS011;27926;48.062;7.474;2022-07-29T05:38:33;4.55;;;1.70;;
42260;SDS011;27926;48.062;7.474;2022-07-29T05:40:58;2.33;;;1.50;;
42260;SDS011;27926;48.062;7.474;2022-07-29T05:43:23;3.17;;;1.60;;
42260;SDS011;27926;48.062;7.474;2022-07-29T05:45:48;2.90;;;1.42;;
42260;SDS011;27926;48.062;7.474;2022-07-29T05:48:12;5.33;;;1.77;;
42260;SDS011;27926;48.062;7.474;2022-07-29T05:50:37;2.27;;;1.57;;
42260;SDS011;27926;48.062;7.474;2022-07-29T05:53:02;3.73;;;1.60;;
42260;SDS011;27926;48.062;7.474;2022-07-29T05:55:26;3.37;;;1.60;;
42260;SDS011;27926;48.062;7.474;2022-07-29T05:57:51;1.57;;;1.47;;
42260;SDS011;27926;48.062;7.474;2022-07-29T06:00:16;2.08;;;1.33;;
42260;SDS011;27926;48.062;7.474;2022-07-29T06:02:41;1.93;;;1.10;;
42260;SDS011;27926;48.062;7.474;2022-07-29T06:05:05;2.10;;;1.50;;
42260;SDS011;27926;48.062;7.474;2022-07-29T06:07:31;5.18;;;1.40;;
42260;SDS011;27926;48.062;7.474;2022-07-29T06:09:56;6.97;;;1.48;;
42260;SDS011;27926;48.062;7.474;2022-07-29T06:12:21;2.93;;;1.60;;
42260;SDS011;27926;48.062;7.474;2022-07-29T06:14:45;2.63;;;1.00;;
42260;SDS011;27926;48.062;7.474;2022-07-29T06:17:10;3.17;;;1.30;;
42260;SDS011;27926;48.062;7.474;2022-07-29T06:19:35;1.60;;;1.50;;
42260;SDS011;27926;48.062;7.474;2022-07-29T06:22:00;2.47;;;1.10;;
42260;SDS011;27926;48.062;7.474;2022-07-29T06:24:24;2.87;;;1.50;;
42260;SDS011;27926;48.062;7.474;2022-07-29T06:26:49;2.30;;;1.20;;
42260;SDS011;27926;48.062;7.474;2022-07-29T06:29:14;2.73;;;1.77;;
42260;SDS011;27926;48.062;7.474;2022-07-29T06:31:38;4.73;;;1.80;;
42260;SDS011;27926;48.062;7.474;2022-07-29T06:34:03;6.00;;;2.00;;
42260;SDS011;27926;48.062;7.474;2022-07-29T06:36:28;8.60;;;1.42;;
42260;SDS011;27926;48.062;7.474;2022-07-29T06:38:53;2.75;;;1.23;;
42260;SDS011;27926;48.062;7.474;2022-07-29T06:41:17;4.37;;;1.60;;
42260;SDS011;27926;48.062;7.474;2022-07-29T06:43:42;2.03;;;1.23;;
42260;SDS011;27926;48.062;7.474;2022-07-29T06:46:09;1.63;;;1.20;;
42260;SDS011;27926;48.062;7.474;2022-07-29T06:48:35;6.82;;;1.45;;
42260;SDS011;27926;48.062;7.474;2022-07-29T06:51:00;5.90;;;1.65;;
42260;SDS011;27926;48.062;7.474;2022-07-29T06:53:26;1.42;;;0.90;;
42260;SDS011;27926;48.062;7.474;2022-07-29T06:58:15;2.55;;;1.42;;
42260;SDS011;27926;48.062;7.474;2022-07-29T07:00:42;3.78;;;1.67;;
42260;SDS011;27926;48.062;7.474;2022-07-29T07:03:06;1.90;;;1.17;;
42260;SDS011;27926;48.062;7.474;2022-07-29T07:05:31;4.83;;;1.00;;
42260;SDS011;27926;48.062;7.474;2022-07-29T07:07:55;5.20;;;1.57;;
42260;SDS011;27926;48.062;7.474;2022-07-29T07:10:20;7.63;;;2.43;;
42260;SDS011;27926;48.062;7.474;2022-07-29T07:12:45;3.13;;;1.37;;
42260;SDS011;27926;48.062;7.474;2022-07-29T07:15:09;9.37;;;2.30;;
42260;SDS011;27926;48.062;7.474;2022-07-29T07:17:34;11.33;;;2.23;;
42260;SDS011;27926;48.062;7.474;2022-07-29T07:19:58;6.13;;;1.47;;
42260;SDS011;27926;48.062;7.474;2022-07-29T07:22:23;6.10;;;1.60;;
42260;SDS011;27926;48.062;7.474;2022-07-29T07:24:48;7.47;;;1.40;;
42260;SDS011;27926;48.062;7.474;2022-07-29T07:27:12;10.03;;;2.27;;
42260;SDS011;27926;48.062;7.474;2022-07-29T07:29:37;8.83;;;1.40;;
42260;SDS011;27926;48.062;7.474;2022-07-29T07:32:05;21.30;;;1.80;;
42260;SDS011;27926;48.062;7.474;2022-07-29T07:34:29;3.37;;;1.40;;
42260;SDS011;27926;48.062;7.474;2022-07-29T07:36:54;5.10;;;1.53;;
42260;SDS011;27926;48.062;7.474;2022-07-29T07:39:18;5.17;;;1.40;;
42260;SDS011;27926;48.062;7.474;2022-07-29T07:41:43;1.50;;;1.03;;
42260;SDS011;27926;48.062;7.474;2022-07-29T07:44:08;6.27;;;1.40;;
42260;SDS011;27926;48.062;7.474;2022-07-29T07:46:32;3.83;;;1.67;;
42260;SDS011;27926;48.062;7.474;2022-07-29T07:48:57;4.03;;;1.27;;
42260;SDS011;27926;48.062;7.474;2022-07-29T07:51:22;3.33;;;1.77;;
42260;SDS011;27926;48.062;7.474;2022-07-29T07:53:46;6.03;;;1.83;;
42260;SDS011;27926;48.062;7.474;2022-07-29T07:56:13;7.55;;;1.40;;
42260;SDS011;27926;48.062;7.474;2022-07-29T07:58:38;9.85;;;1.92;;
42260;SDS011;27926;48.062;7.474;2022-07-29T08:01:03;2.47;;;1.40;;
42260;SDS011;27926;48.062;7.474;2022-07-29T08:03:28;2.43;;;1.40;;
42260;SDS011;27926;48.062;7.474;2022-07-29T08:05:52;10.90;;;1.53;;
42260;SDS011;27926;48.062;7.474;2022-07-29T08:08:18;4.68;;;1.73;;
42260;SDS011;27926;48.062;7.474;2022-07-29T08:10:42;5.87;;;1.87;;
42260;SDS011;27926;48.062;7.474;2022-07-29T08:13:16;1.08;;;0.98;;
42260;SDS011;27926;48.062;7.474;2022-07-29T08:15:42;5.30;;;1.77;;
42260;SDS011;27926;48.062;7.474;2022-07-29T08:18:08;4.20;;;1.35;;
42260;SDS011;27926;48.062;7.474;2022-07-29T08:20:33;5.57;;;1.37;;
42260;SDS011;27926;48.062;7.474;2022-07-29T08:25:24;6.65;;;1.33;;
42260;SDS011;27926;48.062;7.474;2022-07-29T08:27:49;2.63;;;1.87;;
42260;SDS011;27926;48.062;7.474;2022-07-29T08:30:13;10.37;;;2.00;;
42260;SDS011;27926;48.062;7.474;2022-07-29T08:32:38;3.57;;;1.60;;
42260;SDS011;27926;48.062;7.474;2022-07-29T08:35:03;1.67;;;1.07;;
42260;SDS011;27926;48.062;7.474;2022-07-29T08:37:28;9.50;;;1.73;;
42260;SDS011;27926;48.062;7.474;2022-07-29T08:39:52;4.60;;;1.80;;
42260;SDS011;27926;48.062;7.474;2022-07-29T08:42:17;3.70;;;1.60;;
42260;SDS011;27926;48.062;7.474;2022-07-29T08:44:43;2.40;;;1.40;;
42260;SDS011;27926;48.062;7.474;2022-07-29T08:47:08;2.75;;;1.40;;
42260;SDS011;27926;48.062;7.474;2022-07-29T08:49:34;4.47;;;1.30;;
42260;SDS011;27926;48.062;7.474;2022-07-29T08:51:59;8.68;;;1.38;;
42260;SDS011;27926;48.062;7.474;2022-07-29T08:54:24;6.37;;;1.47;;
42260;SDS011;27926;48.062;7.474;2022-07-29T08:56:50;4.32;;;1.58;;
42260;SDS011;27926;48.062;7.474;2022-07-29T08:59:15;3.20;;;1.30;;
42260;SDS011;27926;48.062;7.474;2022-07-29T09:01:43;1.45;;;1.30;;
42260;SDS011;27926;48.062;7.474;2022-07-29T09:04:10;2.83;;;1.50;;
42260;SDS011;27926;48.062;7.474;2022-07-29T09:06:36;4.45;;;1.88;;
42260;SDS011;27926;48.062;7.474;2022-07-29T09:09:04;4.63;;;1.67;;
42260;SDS011;27926;48.062;7.474;2022-07-29T09:11:32;11.35;;;1.83;;
42260;SDS011;27926;48.062;7.474;2022-07-29T09:13:57;7.10;;;1.33;;
42260;SDS011;27926;48.062;7.474;2022-07-29T09:16:21;6.97;;;1.70;;
42260;SDS011;27926;48.062;7.474;2022-07-29T09:18:46;3.67;;;1.63;;
42260;SDS011;27926;48.062;7.474;2022-07-29T09:21:12;1.57;;;1.33;;
42260;SDS011;27926;48.062;7.474;2022-07-29T09:24:01;5.07;;;1.67;;
42260;SDS011;27926;48.062;7.474;2022-07-29T09:26:29;3.95;;;1.65;;
42260;SDS011;27926;48.062;7.474;2022-07-29T09:28:54;2.08;;;1.30;;
42260;SDS011;27926;48.062;7.474;2022-07-29T09:31:19;11.50;;;1.40;;
42260;SDS011;27926;48.062;7.474;2022-07-29T09:34:01;6.25;;;1.58;;
42260;SDS011;27926;48.062;7.474;2022-07-29T09:36:26;7.03;;;2.15;;
42260;SDS011;27926;48.062;7.474;2022-07-29T09:38:57;6.40;;;1.37;;
42260;SDS011;27926;48.062;7.474;2022-07-29T09:41:27;13.32;;;2.83;;
42260;SDS011;27926;48.062;7.474;2022-07-29T09:43:59;4.70;;;1.60;;
42260;SDS011;27926;48.062;7.474;2022-07-29T09:46:25;7.75;;;2.25;;
42260;SDS011;27926;48.062;7.474;2022-07-29T09:49:12;3.57;;;1.67;;
42260;SDS011;27926;48.062;7.474;2022-07-29T09:51:38;1.75;;;1.38;;
42260;SDS011;27926;48.062;7.474;2022-07-29T09:56:49;2.08;;;1.60;;
42260;SDS011;27926;48.062;7.474;2022-07-29T09:59:14;3.55;;;1.40;;
42260;SDS011;27926;48.062;7.474;2022-07-29T10:01:39;5.65;;;1.88;;
42260;SDS011;27926;48.062;7.474;2022-07-29T10:04:04;4.30;;;1.95;;
42260;SDS011;27926;48.062;7.474;2022-07-29T10:06:29;3.33;;;1.77;;
42260;SDS011;27926;48.062;7.474;2022-07-29T10:08:54;4.53;;;2.10;;
42260;SDS011;27926;48.062;7.474;2022-07-29T10:11:19;2.30;;;1.77;;
42260;SDS011;27926;48.062;7.474;2022-07-29T10:13:44;8.73;;;2.60;;
42260;SDS011;27926;48.062;7.474;2022-07-29T10:16:11;3.67;;;2.08;;
42260;SDS011;27926;48.062;7.474;2022-07-29T10:18:39;3.83;;;1.73;;
42260;SDS011;27926;48.062;7.474;2022-07-29T10:21:05;2.53;;;1.35;;
42260;SDS011;27926;48.062;7.474;2022-07-29T10:23:31;6.72;;;1.42;;
42260;SDS011;27926;48.062;7.474;2022-07-29T10:25:57;1.92;;;1.50;;
42260;SDS011;27926;48.062;7.474;2022-07-29T10:28:22;5.20;;;2.00;;
42260;SDS011;27926;48.062;7.474;2022-07-29T10:30:46;6.17;;;2.00;;
42260;SDS011;27926;48.062;7.474;2022-07-29T10:33:21;3.33;;;1.30;;
42260;SDS011;27926;48.062;7.474;2022-07-29T10:36:23;4.63;;;1.40;;
42260;SDS011;27926;48.062;7.474;2022-07-29T10:38:54;5.10;;;2.03;;
42260;SDS011;27926;48.062;7.474;2022-07-29T10:44:01;3.13;;;1.80;;
42260;SDS011;27926;48.062;7.474;2022-07-29T10:46:26;2.88;;;1.35;;
42260;SDS011;27926;48.062;7.474;2022-07-29T10:54:16;2.38;;;1.35;;
42260;SDS011;27926;48.062;7.474;2022-07-29T10:59:42;3.13;;;1.80;;
42260;SDS011;27926;48.062;7.474;2022-07-29T11:07:20;4.37;;;1.87;;
42260;SDS011;27926;48.062;7.474;2022-07-29T11:09:48;2.57;;;1.20;;
42260;SDS011;27926;48.062;7.474;2022-07-29T11:15:09;6.43;;;1.50;;
42260;SDS011;27926;48.062;7.474;2022-07-29T11:23:25;6.55;;;1.58;;
42260;SDS011;27926;48.062;7.474;2022-07-29T11:39:30;5.55;;;1.73;;
42260;SDS011;27926;48.062;7.474;2022-07-29T11:42:36;6.68;;;1.50;;
42260;SDS011;27926;48.062;7.474;2022-07-29T11:47:34;2.70;;;1.70;;
42260;SDS011;27926;48.062;7.474;2022-07-29T11:50:01;5.03;;;1.58;;
42260;SDS011;27926;48.062;7.474;2022-07-29T11:52:37;3.88;;;1.63;;
42260;SDS011;27926;48.062;7.474;2022-07-29T11:55:11;4.10;;;1.67;;
42260;SDS011;27926;48.062;7.474;2022-07-29T11:57:57;5.13;;;1.58;;
42260;SDS011;27926;48.062;7.474;2022-07-29T12:00:28;7.68;;;1.65;;
42260;SDS011;27926;48.062;7.474;2022-07-29T12:02:54;2.03;;;1.45;;
42260;SDS011;27926;48.062;7.474;2022-07-29T12:05:19;2.95;;;1.15;;
42260;SDS011;27926;48.062;7.474;2022-07-29T12:07:44;5.43;;;1.85;;
42260;SDS011;27926;48.062;7.474;2022-07-29T12:10:10;8.75;;;1.33;;
42260;SDS011;27926;48.062;7.474;2022-07-29T12:12:35;2.78;;;1.33;;
42260;SDS011;27926;48.062;7.474;2022-07-29T12:15:13;4.13;;;1.38;;
42260;SDS011;27926;48.062;7.474;2022-07-29T12:17:39;4.70;;;1.70;;
42260;SDS011;27926;48.062;7.474;2022-07-29T12:20:04;2.80;;;1.33;;
42260;SDS011;27926;48.062;7.474;2022-07-29T12:22:30;5.07;;;1.75;;
42260;SDS011;27926;48.062;7.474;2022-07-29T12:25:00;7.45;;;1.65;;
42260;SDS011;27926;48.062;7.474;2022-07-29T12:27:26;14.95;;;2.10;;
42260;SDS011;27926;48.062;7.474;2022-07-29T12:29:55;5.53;;;1.83;;
42260;SDS011;27926;48.062;7.474;2022-07-29T12:32:43;4.47;;;1.75;;
42260;SDS011;27926;48.062;7.474;2022-07-29T12:35:15;1.48;;;1.38;;
42260;SDS011;27926;48.062;7.474;2022-07-29T12:37:45;9.52;;;1.63;;
42260;SDS011;27926;48.062;7.474;2022-07-29T12:40:16;2.75;;;1.58;;
42260;SDS011;27926;48.062;7.474;2022-07-29T12:42:41;3.10;;;1.70;;
42260;SDS011;27926;48.062;7.474;2022-07-29T12:45:06;5.17;;;1.50;;
42260;SDS011;27926;48.062;7.474;2022-07-29T12:50:09;4.70;;;1.70;;
42260;SDS011;27926;48.062;7.474;2022-07-29T12:52:35;2.35;;;1.25;;
42260;SDS011;27926;48.062;7.474;2022-07-29T12:55:00;3.33;;;1.53;;
42260;SDS011;27926;48.062;7.474;2022-07-29T12:57:25;5.10;;;1.75;;
42260;SDS011;27926;48.062;7.474;2022-07-29T13:00:03;1.83;;;1.30;;
42260;SDS011;27926;48.062;7.474;2022-07-29T13:02:31;4.28;;;1.92;;
42260;SDS011;27926;48.062;7.474;2022-07-29T13:04:57;3.77;;;1.07;;
42260;SDS011;27926;48.062;7.474;2022-07-29T13:07:26;13.95;;;1.50;;
42260;SDS011;27926;48.062;7.474;2022-07-29T13:09:53;4.20;;;1.50;;
42260;SDS011;27926;48.062;7.474;2022-07-29T13:12:18;2.38;;;1.33;;
42260;SDS011;27926;48.062;7.474;2022-07-29T13:14:44;4.60;;;1.10;;
42260;SDS011;27926;48.062;7.474;2022-07-29T13:17:11;6.07;;;1.35;;
42260;SDS011;27926;48.062;7.474;2022-07-29T13:19:40;5.32;;;1.73;;
42260;SDS011;27926;48.062;7.474;2022-07-29T13:22:14;3.97;;;1.45;;
42260;SDS011;27926;48.062;7.474;2022-07-29T13:27:21;2.45;;;1.23;;
42260;SDS011;27926;48.062;7.474;2022-07-29T13:29:50;3.80;;;1.40;;
42260;SDS011;27926;48.062;7.474;2022-07-29T13:32:16;4.53;;;1.38;;
42260;SDS011;27926;48.062;7.474;2022-07-29T13:34:41;3.43;;;1.30;;
42260;SDS011;27926;48.062;7.474;2022-07-29T13:37:06;2.50;;;1.40;;
42260;SDS011;27926;48.062;7.474;2022-07-29T13:39:30;2.08;;;1.25;;
42260;SDS011;27926;48.062;7.474;2022-07-29T13:41:55;3.37;;;1.50;;
42260;SDS011;27926;48.062;7.474;2022-07-29T13:44:20;2.53;;;1.50;;
42260;SDS011;27926;48.062;7.474;2022-07-29T13:46:45;5.93;;;1.77;;
42260;SDS011;27926;48.062;7.474;2022-07-29T13:49:09;1.10;;;1.00;;
42260;SDS011;27926;48.062;7.474;2022-07-29T13:51:35;5.90;;;1.55;;
42260;SDS011;27926;48.062;7.474;2022-07-29T13:53:59;4.33;;;1.50;;
42260;SDS011;27926;48.062;7.474;2022-07-29T13:56:24;4.47;;;1.40;;
42260;SDS011;27926;48.062;7.474;2022-07-29T13:58:48;3.13;;;1.47;;
42260;SDS011;27926;48.062;7.474;2022-07-29T14:01:13;16.90;;;1.10;;
42260;SDS011;27926;48.062;7.474;2022-07-29T14:03:38;2.83;;;0.87;;
42260;SDS011;27926;48.062;7.474;2022-07-29T14:06:05;4.70;;;1.20;;
42260;SDS011;27926;48.062;7.474;2022-07-29T14:08:29;2.57;;;1.10;;
42260;SDS011;27926;48.062;7.474;2022-07-29T14:10:54;1.77;;;1.00;;
42260;SDS011;27926;48.062;7.474;2022-07-29T14:13:19;1.53;;;1.10;;
42260;SDS011;27926;48.062;7.474;2022-07-29T14:15:47;8.32;;;1.20;;
42260;SDS011;27926;48.062;7.474;2022-07-29T14:18:12;1.53;;;0.90;;
42260;SDS011;27926;48.062;7.474;2022-07-29T14:20:36;4.80;;;1.23;;
42260;SDS011;27926;48.062;7.474;2022-07-29T14:23:01;2.33;;;1.20;;
42260;SDS011;27926;48.062;7.474;2022-07-29T14:25:26;2.50;;;1.02;;
42260;SDS011;27926;48.062;7.474;2022-07-29T14:27:50;3.40;;;1.10;;
42260;SDS011;27926;48.062;7.474;2022-07-29T14:30:17;4.10;;;1.27;;
42260;SDS011;27926;48.062;7.474;2022-07-29T14:32:41;1.80;;;0.80;;
42260;SDS011;27926;48.062;7.474;2022-07-29T14:35:06;1.30;;;0.90;;
42260;SDS011;27926;48.062;7.474;2022-07-29T14:39:56;7.18;;;1.30;;
42260;SDS011;27926;48.062;7.474;2022-07-29T14:42:25;6.68;;;1.38;;
42260;SDS011;27926;48.062;7.474;2022-07-29T14:44:50;4.30;;;1.37;;
42260;SDS011;27926;48.062;7.474;2022-07-29T14:47:14;3.53;;;2.10;;
42260;SDS011;27926;48.062;7.474;2022-07-29T14:49:39;1.73;;;1.07;;
42260;SDS011;27926;48.062;7.474;2022-07-29T14:52:04;8.30;;;0.98;;
42260;SDS011;27926;48.062;7.474;2022-07-29T14:54:29;2.37;;;1.13;;
42260;SDS011;27926;48.062;7.474;2022-07-29T14:56:53;2.57;;;0.90;;
42260;SDS011;27926;48.062;7.474;2022-07-29T14:59:20;1.85;;;0.82;;
42260;SDS011;27926;48.062;7.474;2022-07-29T15:01:45;4.40;;;1.43;;
42260;SDS011;27926;48.062;7.474;2022-07-29T15:04:10;2.07;;;0.90;;
42260;SDS011;27926;48.062;7.474;2022-07-29T15:06:34;1.80;;;1.10;;
42260;SDS011;27926;48.062;7.474;2022-07-29T15:09:00;2.10;;;0.93;;
42260;SDS011;27926;48.062;7.474;2022-07-29T15:11:24;2.63;;;1.23;;
42260;SDS011;27926;48.062;7.474;2022-07-29T15:13:49;1.47;;;0.80;;
42260;SDS011;27926;48.062;7.474;2022-07-29T15:16:14;1.07;;;0.83;;
42260;SDS011;27926;48.062;7.474;2022-07-29T15:18:38;6.80;;;1.47;;
42260;SDS011;27926;48.062;7.474;2022-07-29T15:21:03;1.27;;;0.80;;
42260;SDS011;27926;48.062;7.474;2022-07-29T15:23:30;4.07;;;0.90;;
42260;SDS011;27926;48.062;7.474;2022-07-29T15:25:55;0.97;;;0.63;;
42260;SDS011;27926;48.062;7.474;2022-07-29T15:28:19;1.10;;;0.70;;
42260;SDS011;27926;48.062;7.474;2022-07-29T15:30:44;6.60;;;0.90;;
42260;SDS011;27926;48.062;7.474;2022-07-29T15:33:09;6.63;;;0.90;;
42260;SDS011;27926;48.062;7.474;2022-07-29T15:35:33;2.63;;;1.20;;
42260;SDS011;27926;48.062;7.474;2022-07-29T15:37:58;2.40;;;0.90;;
42260;SDS011;27926;48.062;7.474;2022-07-29T15:40:23;1.63;;;1.03;;
42260;SDS011;27926;48.062;7.474;2022-07-29T15:42:47;3.53;;;1.10;;
42260;SDS011;27926;48.062;7.474;2022-07-29T15:45:12;3.37;;;0.80;;
42260;SDS011;27926;48.062;7.474;2022-07-29T15:47:37;2.70;;;0.80;;
42260;SDS011;27926;48.062;7.474;2022-07-29T15:50:01;1.87;;;0.90;;
42260;SDS011;27926;48.062;7.474;2022-07-29T15:52:26;2.47;;;0.90;;
42260;SDS011;27926;48.062;7.474;2022-07-29T15:54:51;1.63;;;0.80;;
42260;SDS011;27926;48.062;7.474;2022-07-29T15:57:16;3.03;;;0.80;;